Time;durP1;ratioP1;P1;durP2;ratioP2;P2;SDS_P1;SDS_P2;PMS_P1;PMS_P2;Temp;Humidity;BMP_temperature;BMP_pressure;BME280_temperature;BME280_humidity;BME280_pressure;Samples;Min_cycle;Max_cycle;Signal;HPM_P1;HPM_P2
2023/10/10 00:01:17;;;;;;;2.85;0.90;;;14.90;99.90;;;;;;5047472;28;20477;-66
2023/10/10 00:03:45;;;;;;;6.00;1.10;;;14.80;99.90;;;;;;5048814;28;20053;-67
2023/10/10 00:06:13;;;;;;;3.75;1.00;;;14.80;99.90;;;;;;5050761;28;20045;-70
2023/10/10 00:08:41;;;;;;;3.88;1.10;;;14.80;99.90;;;;;;5062103;28;20083;-67
2023/10/10 00:11:14;;;;;;;8.73;1.38;;;14.80;99.90;;;;;;5049152;28;20060;-66
2023/10/10 00:13:46;;;;;;;4.75;0.82;;;14.90;99.90;;;;;;5067318;28;20044;-72
2023/10/10 00:16:26;;;;;;;2.47;0.85;;;14.80;99.90;;;;;;5066614;28;20086;-66
2023/10/10 00:18:55;;;;;;;;;;;14.80;99.90;;;;;;5055834;28;20068;-66
2023/10/10 00:21:28;;;;;;;6.03;1.08;;;14.80;99.90;;;;;;5050555;28;19924;-66
2023/10/10 00:23:55;;;;;;;10.15;1.23;;;14.80;99.90;;;;;;5058151;28;20060;-66
2023/10/10 00:26:25;;;;;;;7.85;1.23;;;14.80;99.90;;;;;;5096394;28;20076;-67
2023/10/10 00:28:55;;;;;;;3.33;1.17;;;14.70;99.90;;;;;;5065849;28;20139;-66
2023/10/10 00:31:26;;;;;;;;;;;14.80;99.90;;;;;;5062852;28;20044;-67
2023/10/10 00:33:53;;;;;;;2.30;1.33;;;14.70;99.90;;;;;;5051644;28;19947;-66
2023/10/10 00:36:22;;;;;;;2.80;1.13;;;14.70;99.90;;;;;;5046180;28;20049;-66
2023/10/10 00:39:30;;;;;;;;;;;14.80;99.90;;;;;;5038818;28;20049;-69
2023/10/10 00:44:17;;;;;;;4.95;1.65;;;14.80;99.90;;;;;;5048367;28;20531;-68
2023/10/10 00:46:47;;;;;;;5.20;1.60;;;14.70;99.90;;;;;;5059506;28;20052;-66
2023/10/10 00:49:17;;;;;;;9.57;1.63;;;14.80;99.90;;;;;;5062963;28;20052;-66
2023/10/10 00:51:47;;;;;;;5.60;1.48;;;14.80;99.90;;;;;;5065481;28;20064;-66
2023/10/10 00:56:52;;;;;;;5.78;1.70;;;14.70;99.90;;;;;;5067370;28;20091;-76
2023/10/10 00:59:18;;;;;;;8.48;2.00;;;14.70;99.90;;;;;;5066308;28;20044;-67
2023/10/10 01:01:45;;;;;;;5.95;1.98;;;14.70;99.90;;;;;;5053177;28;20040;-66
2023/10/10 01:04:11;;;;;;;3.92;1.90;;;14.60;99.90;;;;;;5065113;28;20501;-66
2023/10/10 01:06:39;;;;;;;8.63;2.28;;;14.70;99.90;;;;;;5065438;28;20052;-66
2023/10/10 01:09:21;;;;;;;5.35;2.28;;;14.60;99.90;;;;;;5063181;28;20052;-66
2023/10/10 01:11:50;;;;;;;7.70;2.45;;;14.60;99.90;;;;;;5056473;28;20398;-67
2023/10/10 01:14:24;;;;;;;5.40;1.80;;;14.50;99.90;;;;;;5063997;28;20048;-66
2023/10/10 01:16:57;;;;;;;6.03;2.28;;;14.50;99.90;;;;;;5066075;28;20044;-66
2023/10/10 01:19:29;;;;;;;6.22;1.58;;;14.50;99.90;;;;;;5066623;28;20110;-67
2023/10/10 01:21:59;;;;;;;4.85;2.10;;;14.60;99.90;;;;;;5066454;28;20045;-87
2023/10/10 01:24:25;;;;;;;;;;;14.60;99.90;;;;;;5057692;28;20505;-67
2023/10/10 01:26:52;;;;;;;5.15;2.10;;;14.50;99.90;;;;;;5057968;28;19924;-81
2023/10/10 01:29:21;;;;;;;7.00;2.40;;;14.60;99.90;;;;;;5060622;28;20560;-67
2023/10/10 01:31:48;;;;;;;6.13;2.00;;;14.60;99.90;;;;;;5046641;28;20120;-67
2023/10/10 01:37:13;;;;;;;8.55;2.10;;;14.60;99.90;;;;;;5041867;28;20137;-66
2023/10/10 01:40:14;;;;;;;10.68;2.45;;;14.50;99.90;;;;;;5067437;28;20048;-67
2023/10/10 01:42:45;;;;;;;2.97;2.65;;;14.60;99.90;;;;;;5063059;28;20099;-67
2023/10/10 01:45:17;;;;;;;12.20;2.67;;;14.60;99.90;;;;;;5066113;28;20080;-67
2023/10/10 01:47:56;;;;;;;5.05;2.03;;;14.60;99.90;;;;;;5067234;28;20037;-67
2023/10/10 01:50:22;;;;;;;4.05;2.17;;;14.60;99.90;;;;;;5066120;28;20048;-67
2023/10/10 01:52:49;;;;;;;4.45;2.30;;;14.50;99.90;;;;;;5055917;28;20037;-67
2023/10/10 01:55:22;;;;;;;8.30;2.30;;;14.60;99.90;;;;;;5063915;28;20044;-67
2023/10/10 01:57:48;;;;;;;7.55;2.70;;;14.60;99.90;;;;;;5070116;28;20069;-66
2023/10/10 02:00:21;;;;;;;6.93;2.58;;;14.60;99.90;;;;;;5064469;28;20487;-66
2023/10/10 02:02:52;;;;;;;6.90;2.42;;;14.50;99.90;;;;;;5052673;28;20257;-66
2023/10/10 02:08:09;;;;;;;11.50;2.72;;;14.50;99.90;;;;;;5067595;28;20043;-81
2023/10/10 02:10:36;;;;;;;4.40;2.40;;;14.50;99.90;;;;;;5056212;28;20080;-66
2023/10/10 02:13:05;;;;;;;6.97;2.55;;;14.50;99.90;;;;;;5075431;28;20112;-66
2023/10/10 02:15:34;;;;;;;6.55;2.22;;;14.40;99.90;;;;;;5044830;28;20048;-67
2023/10/10 02:18:12;;;;;;;3.47;1.80;;;14.50;99.90;;;;;;5060572;28;20099;-67
2023/10/10 02:23:31;;;;;;;6.38;2.17;;;14.30;99.90;;;;;;5049515;28;20123;-67
2023/10/10 02:26:14;;;;;;;3.58;2.08;;;14.40;99.90;;;;;;5045462;28;20381;-66
2023/10/10 02:28:46;;;;;;;6.35;2.05;;;14.30;99.90;;;;;;5049609;28;20119;-82
2023/10/10 02:31:15;;;;;;;11.38;2.00;;;14.20;99.90;;;;;;5049649;28;20053;-66
2023/10/10 02:33:48;;;;;;;3.90;2.10;;;14.20;99.90;;;;;;5047267;28;20118;-68
2023/10/10 02:36:16;;;;;;;3.95;1.92;;;14.30;99.90;;;;;;5048858;28;20326;-67
2023/10/10 02:38:54;;;;;;;5.35;2.08;;;14.20;99.90;;;;;;5048659;28;20143;-70
2023/10/10 02:46:34;;;;;;;3.58;2.30;;;14.20;99.90;;;;;;5080723;28;20056;-67
2023/10/10 02:49:09;;;;;;;3.58;2.28;;;14.30;99.90;;;;;;5049404;28;20045;-67
2023/10/10 02:51:41;;;;;;;4.95;2.70;;;14.30;99.90;;;;;;5048424;28;20044;-79
2023/10/10 02:56:57;;;;;;;6.10;2.63;;;14.30;99.90;;;;;;5049398;28;20150;-67
2023/10/10 02:59:38;;;;;;;3.90;2.42;;;14.20;99.90;;;;;;5047091;28;20041;-66
2023/10/10 03:02:09;;;;;;;5.43;2.90;;;14.20;99.90;;;;;;5080047;28;20049;-67
2023/10/10 03:07:27;;;;;;;5.07;3.10;;;14.30;99.90;;;;;;5053084;28;20052;-67
2023/10/10 03:12:49;;;;;;;5.55;3.17;;;14.20;99.90;;;;;;5050742;28;20087;-66
2023/10/10 03:26:03;;;;;;;7.03;3.00;;;14.40;99.90;;;;;;5063582;28;20087;-67
2023/10/10 03:28:33;;;;;;;3.67;3.22;;;14.40;99.90;;;;;;5045390;28;20123;-67
2023/10/10 03:31:10;;;;;;;7.45;3.35;;;14.40;99.90;;;;;;5065915;28;20447;-83
2023/10/10 03:33:43;;;;;;;8.93;3.42;;;14.40;99.90;;;;;;5089041;28;20494;-66
2023/10/10 05:25:37;;;;;;;4.30;2.58;;;14.90;99.90;;;;;;5044636;28;20056;-70
2023/10/10 05:28:03;;;;;;;5.35;2.60;;;14.80;99.90;;;;;;5066694;28;20105;-66
2023/10/10 05:30:39;;;;;;;5.57;2.78;;;14.90;99.90;;;;;;5066099;28;20394;-66
2023/10/10 05:33:06;;;;;;;6.32;3.00;;;14.80;99.90;;;;;;5069550;28;20040;-68
2023/10/10 05:35:34;;;;;;;8.10;2.58;;;14.90;99.90;;;;;;5065915;28;20087;-66
2023/10/10 05:38:01;;;;;;;5.70;2.40;;;14.80;99.90;;;;;;5066541;28;20056;-67
2023/10/10 05:40:27;;;;;;;4.43;2.25;;;14.90;99.90;;;;;;5057534;28;20044;-66
2023/10/10 05:42:57;;;;;;;3.45;2.47;;;14.80;99.90;;;;;;5071049;28;20558;-67
2023/10/10 05:45:22;;;;;;;6.28;2.70;;;14.80;99.90;;;;;;5068715;28;20640;-66
2023/10/10 05:47:49;;;;;;;4.65;2.20;;;14.80;99.90;;;;;;5070434;28;20096;-66
2023/10/10 05:50:16;;;;;;;5.47;2.45;;;14.90;99.90;;;;;;5069095;28;20147;-73
2023/10/10 05:52:43;;;;;;;4.82;2.80;;;14.80;99.90;;;;;;5069329;28;20044;-67
2023/10/10 05:55:10;;;;;;;5.63;2.45;;;14.90;99.90;;;;;;5061066;28;20123;-73
2023/10/10 05:57:37;;;;;;;3.42;2.60;;;14.80;99.90;;;;;;5068812;28;20491;-76
2023/10/10 06:00:10;;;;;;;4.28;2.42;;;14.80;99.90;;;;;;5068928;28;20052;-66
2023/10/10 06:02:42;;;;;;;4.93;2.63;;;14.90;99.90;;;;;;5062215;28;20041;-66
2023/10/10 06:05:09;;;;;;;4.65;2.83;;;14.90;99.90;;;;;;5068233;28;20048;-79
2023/10/10 06:07:53;;;;;;;6.85;2.45;;;14.90;99.90;;;;;;5070370;28;20052;-67
2023/10/10 06:10:20;;;;;;;5.88;2.90;;;15.00;99.90;;;;;;5056369;28;20033;-67
2023/10/10 06:12:47;;;;;;;14.32;2.95;;;14.90;99.90;;;;;;5089010;28;20047;-67
2023/10/10 06:15:17;;;;;;;4.53;2.85;;;15.00;99.90;;;;;;5067445;28;20616;-67
2023/10/10 06:17:44;;;;;;;3.67;2.80;;;14.90;99.90;;;;;;5068075;28;20070;-67
2023/10/10 06:20:10;;;;;;;5.47;3.17;;;14.90;99.90;;;;;;5069758;28;20410;-66
2023/10/10 06:22:37;;;;;;;5.80;3.60;;;15.00;99.90;;;;;;5055516;28;20048;-66
2023/10/10 06:25:06;;;;;;;6.70;3.47;;;14.90;99.90;;;;;;5069470;28;20040;-67
2023/10/10 06:27:36;;;;;;;6.13;3.75;;;15.10;99.90;;;;;;5068398;28;20119;-67
2023/10/10 06:30:05;;;;;;;6.40;3.70;;;15.10;99.90;;;;;;5070203;28;20032;-66
2023/10/10 06:32:31;;;;;;;6.83;4.47;;;15.00;99.90;;;;;;5065855;28;20044;-67
2023/10/10 06:37:42;;;;;;;6.57;4.05;;;14.90;99.90;;;;;;5069764;28;20048;-66
2023/10/10 06:40:09;;;;;;;4.35;3.90;;;15.00;99.90;;;;;;5068637;28;20404;-66
2023/10/10 06:42:37;;;;;;;8.40;4.28;;;14.90;99.90;;;;;;5051493;28;20475;-66
2023/10/10 06:45:11;;;;;;;8.32;4.35;;;15.00;99.90;;;;;;5067297;28;20115;-66
2023/10/10 06:47:39;;;;;;;13.48;4.07;;;15.00;99.90;;;;;;5069733;28;20569;-67
2023/10/10 06:50:10;;;;;;;9.35;4.82;;;15.00;99.90;;;;;;5066934;28;20053;-69
2023/10/10 06:52:39;;;;;;;8.02;4.40;;;15.00;99.90;;;;;;5069272;28;20056;-68
2023/10/10 06:55:12;;;;;;;8.75;4.78;;;15.00;99.90;;;;;;5057822;28;20041;-68
2023/10/10 06:57:38;;;;;;;6.30;3.67;;;15.00;99.90;;;;;;5058426;28;20048;-67
2023/10/10 07:00:20;;;;;;;9.50;4.30;;;15.20;99.90;;;;;;5067346;28;20491;-67
2023/10/10 07:02:50;;;;;;;6.28;4.55;;;15.20;99.90;;;;;;5044434;28;20076;-66
2023/10/10 07:05:18;;;;;;;8.77;5.53;;;15.20;99.90;;;;;;5050441;28;20056;-67
2023/10/10 07:07:57;;;;;;;11.20;5.22;;;15.10;99.90;;;;;;5080100;28;20112;-66
2023/10/10 07:10:26;;;;;;;10.20;5.80;;;15.20;99.90;;;;;;5080710;28;20564;-66
2023/10/10 07:12:58;;;;;;;11.90;6.05;;;15.30;99.90;;;;;;5050453;28;20115;-66
2023/10/10 07:15:34;;;;;;;14.25;6.60;;;15.30;99.90;;;;;;5049047;28;20487;-67
2023/10/10 07:18:08;;;;;;;14.77;6.80;;;15.40;99.90;;;;;;5047115;28;20064;-67
2023/10/10 07:23:20;;;;;;;14.13;7.03;;;15.40;99.90;;;;;;5080026;28;20049;-67
2023/10/10 07:25:59;;;;;;;11.00;7.18;;;15.40;99.90;;;;;;5080488;28;20102;-67
2023/10/10 07:28:28;;;;;;;14.18;7.28;;;15.50;99.90;;;;;;5047694;28;20041;-67
2023/10/10 07:30:55;;;;;;;16.02;8.23;;;15.70;99.90;;;;;;5048575;28;20068;-82
2023/10/10 07:33:40;;;;;;;15.60;8.25;;;15.80;99.90;;;;;;5033935;28;20059;-67
2023/10/10 07:36:06;;;;;;;16.77;8.75;;;15.80;99.90;;;;;;5049534;28;20048;-67
2023/10/10 07:38:37;;;;;;;17.90;9.27;;;16.00;99.90;;;;;;5051218;28;20499;-67
2023/10/10 07:41:04;;;;;;;17.05;9.02;;;16.10;99.90;;;;;;5048410;28;20048;-67
2023/10/10 07:43:34;;;;;;;14.93;8.57;;;16.10;99.90;;;;;;5053008;28;20048;-87
2023/10/10 07:46:12;;;;;;;;;;;16.10;99.90;;;;;;5056763;28;20452;-68
2023/10/10 07:48:39;;;;;;;16.73;8.63;;;16.10;99.90;;;;;;5047918;28;20263;-67
2023/10/10 07:51:08;;;;;;;16.23;9.43;;;16.20;99.90;;;;;;5047304;28;20473;-66
2023/10/10 07:53:44;;;;;;;21.73;8.80;;;16.10;99.90;;;;;;5047606;28;20037;-67
2023/10/10 07:56:10;;;;;;;15.15;8.10;;;16.20;99.90;;;;;;5047103;28;20063;-67
2023/10/10 07:58:56;;;;;;;17.15;9.00;;;16.30;99.90;;;;;;5058549;28;20107;-68
2023/10/10 08:01:23;;;;;;;12.45;8.02;;;16.20;99.90;;;;;;5048471;28;20391;-67
2023/10/10 08:03:49;;;;;;;18.45;9.20;;;16.10;99.90;;;;;;5046961;28;20047;-67
2023/10/10 08:06:21;;;;;;;15.32;8.18;;;16.10;99.90;;;;;;5046874;28;20117;-67
2023/10/10 08:08:49;;;;;;;13.23;8.32;;;16.10;99.90;;;;;;5047621;28;20045;-66
2023/10/10 08:11:24;;;;;;;14.82;7.97;;;16.30;99.90;;;;;;5039092;28;20044;-66
2023/10/10 08:13:51;;;;;;;12.65;8.35;;;16.40;99.90;;;;;;5056624;28;20376;-66
2023/10/10 08:16:29;;;;;;;15.05;8.20;;;16.40;99.90;;;;;;5051449;28;20055;-66
2023/10/10 08:18:55;;;;;;;13.40;8.25;;;16.70;99.90;;;;;;5077252;28;20491;-67
2023/10/10 08:21:22;;;;;;;10.38;7.90;;;16.80;99.90;;;;;;5051033;28;20503;-86
2023/10/10 08:23:50;;;;;;;13.05;7.60;;;17.10;99.90;;;;;;5059835;28;20115;-67
2023/10/10 08:26:24;;;;;;;15.10;8.93;;;17.20;99.90;;;;;;5050449;28;20126;-67
2023/10/10 08:28:52;;;;;;;16.63;8.93;;;17.40;99.90;;;;;;5059100;28;20530;-79
2023/10/10 08:31:17;;;;;;;16.55;9.27;;;17.40;99.90;;;;;;5046574;28;20578;-68
2023/10/10 08:33:46;;;;;;;15.73;9.13;;;17.40;99.90;;;;;;5062442;28;20037;-67
2023/10/10 08:36:23;;;;;;;21.88;10.52;;;17.50;99.90;;;;;;5062945;28;20505;-85
2023/10/10 08:38:50;;;;;;;13.27;9.52;;;17.50;99.90;;;;;;5057698;28;20399;-67
2023/10/10 08:41:20;;;;;;;19.23;9.73;;;17.30;99.90;;;;;;5074555;28;20424;-66
2023/10/10 08:43:53;;;;;;;12.30;9.43;;;17.20;99.90;;;;;;5055090;28;20048;-66
2023/10/10 08:46:24;;;;;;;20.25;11.02;;;17.30;99.90;;;;;;5062172;28;20467;-66
2023/10/10 08:48:51;;;;;;;18.48;11.85;;;17.20;99.90;;;;;;5052983;28;20048;-67
2023/10/10 08:51:17;;;;;;;22.52;13.00;;;17.20;99.90;;;;;;5057215;28;20048;-86
2023/10/10 08:53:44;;;;;;;18.50;12.40;;;17.20;99.90;;;;;;5053845;28;20045;-67
2023/10/10 08:56:14;;;;;;;26.73;15.00;;;17.30;99.90;;;;;;5050714;28;20080;-86
2023/10/10 08:58:40;;;;;;;26.73;14.18;;;17.20;99.90;;;;;;5045048;28;20095;-66
2023/10/10 09:01:08;;;;;;;28.92;16.73;;;17.20;99.90;;;;;;5046347;28;20067;-84
2023/10/10 09:03:44;;;;;;;30.70;15.45;;;17.20;99.90;;;;;;5046887;28;20573;-66
2023/10/10 09:06:21;;;;;;;27.67;14.52;;;17.30;99.90;;;;;;5049550;28;20083;-67
2023/10/10 09:08:49;;;;;;;38.53;17.15;;;17.30;99.90;;;;;;5052615;28;20052;-66
2023/10/10 09:11:20;;;;;;;31.42;14.75;;;17.30;99.90;;;;;;5056001;28;20048;-66
2023/10/10 09:13:52;;;;;;;29.52;15.57;;;17.40;99.90;;;;;;5058028;28;20138;-65
2023/10/10 09:16:44;;;;;;;34.17;16.52;;;17.40;99.90;;;;;;5061982;28;20510;-66
2023/10/10 09:19:10;;;;;;;29.08;14.98;;;17.50;99.90;;;;;;5079439;28;20060;-67
2023/10/10 09:21:50;;;;;;;25.45;14.82;;;17.50;99.90;;;;;;5073647;28;20457;-66
2023/10/10 09:24:27;;;;;;;26.98;14.18;;;17.60;99.90;;;;;;5058524;28;20082;-82
2023/10/10 09:26:56;;;;;;;26.85;14.63;;;17.60;99.90;;;;;;5074331;28;20041;-66
2023/10/10 09:29:34;;;;;;;34.00;16.52;;;17.70;99.90;;;;;;5047372;28;20491;-73
2023/10/10 09:32:01;;;;;;;24.42;14.13;;;17.70;99.90;;;;;;5050927;28;20044;-66
2023/10/10 09:34:35;;;;;;;29.20;15.48;;;17.70;99.90;;;;;;5060055;28;20040;-66
2023/10/10 09:37:07;;;;;;;35.05;16.13;;;17.80;99.90;;;;;;5057139;28;20074;-66
2023/10/10 09:39:40;;;;;;;33.28;16.90;;;17.90;99.90;;;;;;5051924;28;20495;-66
2023/10/10 09:42:07;;;;;;;32.38;15.43;;;17.90;99.90;;;;;;5051530;28;20048;-66
2023/10/10 09:47:43;;;;;;;28.08;15.20;;;18.00;99.90;;;;;;5080370;28;20415;-87
2023/10/10 09:52:54;;;;;;;31.13;15.40;;;18.10;99.90;;;;;;5066621;28;20044;-66
2023/10/10 10:09:09;;;;;;;29.23;16.38;;;19.30;99.90;;;;;;5048820;28;20041;-66
2023/10/10 10:12:29;;;;;;;33.50;17.20;;;19.30;99.90;;;;;;5050371;28;20513;-66
2023/10/10 10:15:48;;;;;;;33.80;18.67;;;19.30;99.90;;;;;;5036078;28;20122;-67
2023/10/10 10:18:29;;;;;;;31.83;17.63;;;19.20;99.90;;;;;;5005631;28;20130;-66
2023/10/10 10:23:38;;;;;;;32.67;16.42;;;19.20;99.90;;;;;;5052327;28;20124;-66
2023/10/10 10:26:08;;;;;;;27.27;15.45;;;19.30;99.90;;;;;;5049973;28;20091;-84
2023/10/10 10:28:41;;;;;;;36.22;18.80;;;19.30;99.90;;;;;;5052301;28;20049;-67
2023/10/10 10:31:16;;;;;;;;;;;19.50;99.90;;;;;;5050700;28;20045;-66
2023/10/10 10:34:05;;;;;;;31.02;17.40;;;19.50;99.90;;;;;;5051158;28;19928;-66
2023/10/10 10:36:45;;;;;;;31.70;18.60;;;19.50;99.90;;;;;;5066040;28;20098;-82
2023/10/10 10:39:19;;;;;;;35.63;18.20;;;19.50;99.90;;;;;;5055937;28;20052;-71
2023/10/10 10:41:53;;;;;;;34.28;18.77;;;19.60;99.90;;;;;;5050080;28;20048;-66
2023/10/10 10:44:29;;;;;;;32.83;18.35;;;19.60;99.90;;;;;;5081733;28;20818;-66
2023/10/10 10:46:57;;;;;;;36.35;19.58;;;19.60;99.90;;;;;;5048519;28;20037;-66
2023/10/10 10:49:38;;;;;;;37.45;18.95;;;19.70;99.90;;;;;;5054913;28;20073;-66
2023/10/10 10:52:18;;;;;;;33.97;17.25;;;19.70;99.90;;;;;;5047424;28;20033;-66
2023/10/10 10:55:01;;;;;;;33.03;17.38;;;19.70;99.90;;;;;;5049810;28;20047;-66
2023/10/10 10:57:29;;;;;;;38.20;18.13;;;19.70;99.90;;;;;;5081705;28;20052;-66
2023/10/10 10:59:55;;;;;;;28.80;17.02;;;19.70;99.90;;;;;;5046453;28;20067;-66
2023/10/10 11:02:31;;;;;;;30.33;16.48;;;19.80;99.90;;;;;;5048869;28;20060;-66
2023/10/10 11:04:57;;;;;;;36.25;17.30;;;19.90;99.90;;;;;;5047621;28;20056;-66
2023/10/10 11:07:30;;;;;;;32.60;17.60;;;19.90;99.90;;;;;;5047675;28;20041;-66
2023/10/10 11:10:06;;;;;;;32.63;16.27;;;19.80;99.90;;;;;;5048479;28;20107;-66
2023/10/10 11:12:36;;;;;;;32.75;17.25;;;19.90;99.90;;;;;;5065034;28;20173;-66
2023/10/10 11:15:10;;;;;;;26.77;17.25;;;19.90;99.90;;;;;;5058129;28;20141;-66
2023/10/10 11:17:39;;;;;;;30.48;17.05;;;19.90;99.90;;;;;;5047286;28;20080;-66
2023/10/10 11:22:55;;;;;;;31.83;16.52;;;19.90;99.90;;;;;;5052020;28;20040;-86
2023/10/10 11:25:27;;;;;;;30.92;15.80;;;19.90;99.90;;;;;;5055613;28;20041;-79
2023/10/10 11:27:55;;;;;;;35.65;17.00;;;19.80;99.90;;;;;;5051586;28;20036;-66
2023/10/10 11:30:25;;;;;;;27.73;16.35;;;19.80;99.90;;;;;;5063421;28;20048;-66
2023/10/10 11:33:16;;;;;;;35.67;17.20;;;19.80;99.90;;;;;;5067636;28;20048;-66
2023/10/10 11:35:37;;;;;;;29.63;16.30;;;19.80;99.90;;;;;;5060793;28;20037;-67
2023/10/10 11:38:08;;;;;;;30.08;16.38;;;19.80;99.90;;;;;;5065710;28;20055;-66
2023/10/10 11:40:44;;;;;;;28.20;14.90;;;19.70;99.90;;;;;;5068743;28;20052;-66
2023/10/10 11:43:11;;;;;;;35.55;16.58;;;19.70;99.90;;;;;;5066840;28;20387;-66
2023/10/10 11:45:44;;;;;;;30.33;15.75;;;19.70;99.90;;;;;;5050825;28;20052;-70
2023/10/10 11:48:14;;;;;;;33.55;15.98;;;19.70;99.90;;;;;;5059466;28;20473;-70
2023/10/10 11:50:51;;;;;;;25.83;14.43;;;19.70;99.90;;;;;;5098638;28;20045;-67
2023/10/10 11:53:23;;;;;;;27.10;13.93;;;19.80;99.90;;;;;;5067455;28;20044;-66
2023/10/10 11:55:54;;;;;;;27.83;14.25;;;19.90;99.90;;;;;;5067676;28;20657;-66
2023/10/10 11:58:21;;;;;;;26.55;13.63;;;20.00;99.90;;;;;;5068184;28;20105;-66
2023/10/10 12:01:03;;;;;;;27.58;13.98;;;20.00;99.90;;;;;;5065364;28;20047;-67
2023/10/10 12:06:05;;;;;;;27.77;14.75;;;20.10;99.90;;;;;;5067270;28;20498;-66
2023/10/10 12:08:31;;;;;;;25.42;14.30;;;20.10;99.90;;;;;;5067528;28;20047;-66
2023/10/10 12:11:11;;;;;;;29.90;14.50;;;20.10;99.90;;;;;;5052405;28;20048;-65
2023/10/10 12:13:51;;;;;;;24.42;13.65;;;20.20;99.90;;;;;;5066873;28;20068;-66
2023/10/10 12:16:23;;;;;;;23.55;12.57;;;20.10;99.90;;;;;;5064770;28;20056;-66
2023/10/10 12:18:55;;;;;;;29.05;13.85;;;20.20;99.90;;;;;;5054618;28;20106;-66
2023/10/10 12:21:25;;;;;;;18.25;12.60;;;20.30;99.90;;;;;;5059439;28;20106;-68
2023/10/10 12:24:00;;;;;;;23.75;12.40;;;20.40;99.90;;;;;;5053917;28;20071;-66
2023/10/10 12:26:26;;;;;;;25.48;14.23;;;20.50;99.90;;;;;;5053587;28;20045;-66
2023/10/10 12:28:55;;;;;;;21.40;12.93;;;20.60;99.90;;;;;;5066727;28;20088;-65
2023/10/10 12:31:22;;;;;;;24.05;15.02;;;20.50;99.90;;;;;;5059336;28;20044;-66
2023/10/10 12:33:49;;;;;;;20.83;12.18;;;20.40;99.90;;;;;;5058636;28;20045;-66
2023/10/10 12:36:18;;;;;;;24.38;12.02;;;20.40;99.90;;;;;;5062414;28;20052;-66
2023/10/10 12:38:44;;;;;;;24.17;12.63;;;20.40;99.90;;;;;;5061093;28;20117;-85
2023/10/10 12:41:13;;;;;;;22.15;11.55;;;20.50;99.90;;;;;;5067596;28;20548;-66
2023/10/10 12:43:39;;;;;;;27.67;12.48;;;20.60;99.90;;;;;;5064660;28;20041;-67
2023/10/10 12:46:07;;;;;;;22.98;12.00;;;20.70;99.90;;;;;;5067737;28;20066;-66
2023/10/10 12:48:39;;;;;;;18.23;11.13;;;20.90;99.90;;;;;;5065765;28;20041;-82
2023/10/10 12:51:09;;;;;;;23.33;12.02;;;21.00;99.90;;;;;;5063781;28;20094;-85
2023/10/10 12:53:39;;;;;;;18.75;11.13;;;21.10;99.90;;;;;;5064726;28;20375;-66
2023/10/10 12:56:16;;;;;;;21.67;11.65;;;21.20;99.90;;;;;;5056315;28;20129;-66
2023/10/10 12:58:50;;;;;;;22.00;12.30;;;21.30;99.90;;;;;;5066322;28;20048;-66
2023/10/10 13:01:22;;;;;;;21.67;11.82;;;21.30;99.90;;;;;;5060614;28;20542;-66
2023/10/10 13:03:49;;;;;;;25.88;12.52;;;21.40;99.90;;;;;;5066610;28;20111;-66
2023/10/10 13:06:15;;;;;;;18.73;11.02;;;21.50;99.90;;;;;;5058351;28;20049;-66
2023/10/10 13:08:48;;;;;;;24.65;11.95;;;21.70;99.90;;;;;;5064332;28;20471;-66
2023/10/10 13:11:15;;;;;;;22.65;12.35;;;21.90;99.90;;;;;;5044715;28;20120;-66
2023/10/10 13:13:56;;;;;;;19.35;11.52;;;21.90;99.90;;;;;;5063150;28;20098;-66
2023/10/10 13:16:27;;;;;;;25.38;12.02;;;21.90;99.90;;;;;;5039361;28;20040;-66
2023/10/10 13:18:57;;;;;;;22.42;11.55;;;21.80;99.90;;;;;;5059389;28;20144;-66
2023/10/10 13:21:26;;;;;;;20.90;10.45;;;21.70;99.90;;;;;;5054941;28;20049;-66
2023/10/10 13:23:53;;;;;;;20.58;11.15;;;21.80;99.90;;;;;;5054823;28;20041;-65
2023/10/10 13:26:22;;;;;;;19.70;10.93;;;21.80;99.90;;;;;;5056641;28;20096;-65
2023/10/10 13:28:49;;;;;;;23.90;12.13;;;21.80;99.90;;;;;;5059134;28;20055;-65
2023/10/10 13:31:16;;;;;;;26.50;12.20;;;21.80;99.90;;;;;;5080544;28;20045;-65
2023/10/10 13:33:43;;;;;;;20.38;11.35;;;21.70;99.90;;;;;;5034485;28;20257;-64
2023/10/10 13:36:15;;;;;;;20.33;12.05;;;21.60;99.90;;;;;;5058515;28;20056;-65
2023/10/10 13:38:53;;;;;;;23.33;11.77;;;21.50;99.90;;;;;;5078623;28;20037;-65
2023/10/10 13:41:22;;;;;;;25.42;11.13;;;21.50;99.90;;;;;;5057184;28;20096;-65
2023/10/10 13:43:51;;;;;;;19.80;11.38;;;21.40;99.90;;;;;;5038545;28;20170;-65
2023/10/10 13:46:19;;;;;;;19.42;10.98;;;21.40;99.90;;;;;;5049386;28;20045;-86
2023/10/10 13:48:46;;;;;;;25.83;11.65;;;21.40;99.90;;;;;;5044006;28;20033;-65
2023/10/10 13:51:15;;;;;;;22.85;11.32;;;21.30;99.90;;;;;;5047045;28;20067;-65
2023/10/10 13:53:43;;;;;;;26.48;12.32;;;21.20;99.90;;;;;;5046826;28;20037;-65
2023/10/10 13:56:10;;;;;;;22.75;12.38;;;21.20;99.90;;;;;;5058276;28;20037;-65
2023/10/10 13:58:37;;;;;;;22.75;11.65;;;21.10;99.90;;;;;;5048100;28;20513;-65
2023/10/10 14:01:26;;;;;;;19.33;11.02;;;21.00;99.90;;;;;;5051147;28;20033;-64
2023/10/10 14:04:04;;;;;;;18.70;11.13;;;20.90;99.90;;;;;;5050307;28;20083;-65
2023/10/10 14:06:53;;;;;;;17.60;11.32;;;20.90;99.90;;;;;;5061341;28;20053;-65
2023/10/10 14:09:24;;;;;;;19.65;10.55;;;20.80;99.90;;;;;;5048894;28;20048;-65
2023/10/10 14:12:00;;;;;;;19.05;10.25;;;20.80;99.90;;;;;;5057799;28;20047;-65
2023/10/10 14:14:26;;;;;;;19.75;10.32;;;20.70;99.90;;;;;;5063084;28;20055;-65
2023/10/10 14:16:52;;;;;;;18.50;10.18;;;20.70;99.90;;;;;;5051804;28;20511;-65
2023/10/10 14:19:18;;;;;;;20.50;10.50;;;20.70;99.90;;;;;;5054525;28;20061;-65
2023/10/10 14:21:44;;;;;;;18.48;10.57;;;20.70;99.90;;;;;;5057393;28;20214;-64
2023/10/10 14:24:12;;;;;;;20.45;10.00;;;20.60;99.90;;;;;;5062762;28;20414;-65
2023/10/10 14:26:43;;;;;;;16.98;10.52;;;20.70;99.90;;;;;;5031680;28;20124;-65
2023/10/10 14:29:12;;;;;;;16.85;10.05;;;20.60;99.90;;;;;;5059953;28;20508;-64
2023/10/10 14:31:45;;;;;;;21.13;10.77;;;20.60;99.90;;;;;;5059790;28;20052;-65
2023/10/10 14:34:24;;;;;;;17.90;9.35;;;20.60;99.90;;;;;;5063073;28;20048;-65
2023/10/10 14:36:54;;;;;;;;;;;20.60;99.90;;;;;;5036094;28;20036;-65
2023/10/10 14:39:29;;;;;;;;;;;20.50;99.90;;;;;;5063770;28;20440;-65
2023/10/10 14:41:59;;;;;;;21.10;10.32;;;20.50;99.90;;;;;;5069103;28;20058;-64
2023/10/10 14:44:28;;;;;;;18.63;9.95;;;20.50;99.90;;;;;;5067250;28;20049;-64
2023/10/10 14:46:54;;;;;;;21.25;10.55;;;20.40;99.90;;;;;;5069255;28;20068;-64
2023/10/10 14:49:29;;;;;;;20.23;10.25;;;20.40;99.90;;;;;;5068572;28;20218;-65
2023/10/10 14:51:56;;;;;;;18.27;10.07;;;20.30;99.90;;;;;;5069568;28;20055;-65
2023/10/10 14:54:23;;;;;;;16.67;9.25;;;20.30;99.90;;;;;;5064670;28;20127;-65
2023/10/10 14:56:53;;;;;;;19.40;9.80;;;20.20;99.90;;;;;;5064915;28;20390;-65
2023/10/10 14:59:25;;;;;;;17.90;10.30;;;20.10;99.90;;;;;;5068833;28;20059;-64
2023/10/10 15:01:53;;;;;;;15.95;9.23;;;20.10;99.90;;;;;;5061440;28;20064;-65
2023/10/10 15:04:21;;;;;;;20.88;8.75;;;20.00;99.90;;;;;;5048647;28;20179;-65
2023/10/10 15:06:54;;;;;;;14.57;8.80;;;20.00;99.90;;;;;;5039622;28;20037;-65
2023/10/10 15:09:20;;;;;;;16.00;9.25;;;19.90;99.90;;;;;;5054844;28;20060;-65
2023/10/10 15:11:47;;;;;;;18.13;8.82;;;19.90;99.90;;;;;;5057923;28;20048;-65
2023/10/10 15:14:14;;;;;;;27.17;11.70;;;19.90;99.90;;;;;;5067267;28;20483;-65
2023/10/10 15:16:41;;;;;;;26.33;11.80;;;19.80;99.90;;;;;;5051538;28;20040;-65
2023/10/10 15:19:08;;;;;;;21.75;10.82;;;19.80;99.90;;;;;;5053011;28;20052;-65
2023/10/10 15:21:34;;;;;;;18.05;9.90;;;19.70;99.90;;;;;;5056425;28;20063;-65
2023/10/10 15:24:01;;;;;;;15.55;9.40;;;19.70;99.90;;;;;;5063058;28;20518;-65
2023/10/10 15:26:27;;;;;;;16.10;9.50;;;19.60;99.90;;;;;;5063732;28;20115;-65
2023/10/10 15:28:54;;;;;;;18.13;9.73;;;19.60;99.90;;;;;;5054458;28;20106;-65
2023/10/10 15:31:30;;;;;;;19.02;8.52;;;19.60;99.90;;;;;;5048510;28;20102;-65
2023/10/10 15:34:00;;;;;;;19.70;9.25;;;19.60;99.90;;;;;;5047574;28;20098;-65
2023/10/10 15:36:31;;;;;;;16.77;8.93;;;19.60;99.90;;;;;;5059941;28;20048;-66
2023/10/10 15:39:03;;;;;;;19.95;9.43;;;19.50;99.90;;;;;;5057316;28;20044;-65
2023/10/10 15:41:31;;;;;;;15.15;8.57;;;19.50;99.90;;;;;;5056890;28;20072;-65
2023/10/10 15:44:04;;;;;;;14.75;8.20;;;19.50;99.90;;;;;;5048562;28;20491;-65
2023/10/10 15:46:32;;;;;;;14.88;8.63;;;19.50;99.90;;;;;;5047859;28;20075;-65
2023/10/10 15:48:59;;;;;;;12.32;7.57;;;19.40;99.90;;;;;;5069483;28;20670;-66
2023/10/10 15:51:25;;;;;;;13.55;7.80;;;19.40;99.90;;;;;;5061278;28;20142;-65
2023/10/10 15:53:53;;;;;;;19.05;8.02;;;19.40;99.90;;;;;;5053295;28;20386;-65
2023/10/10 15:56:26;;;;;;;18.13;8.10;;;19.30;99.90;;;;;;5063212;28;20135;-65
2023/10/10 15:58:54;;;;;;;13.23;7.43;;;19.30;99.90;;;;;;5046950;28;20479;-65